createdAt,value
2023-05-09T00:02:17.268Z,100123.81
2023-05-09T00:04:44.279Z,100082.78
2023-05-09T00:07:11.157Z,100067.72
2023-05-09T00:09:37.876Z,100075.97
2023-05-09T00:12:04.975Z,100091.84
2023-05-09T00:14:33.654Z,100090.63
2023-05-09T00:17:00.901Z,100082.97
2023-05-09T00:19:27.680Z,100136.22
2023-05-09T00:21:54.635Z,100139.50
2023-05-09T00:24:21.357Z,100101.91
2023-05-09T00:26:48.057Z,100083.19
2023-05-09T00:29:14.731Z,100110.91
2023-05-09T00:31:41.427Z,100115.31
2023-05-09T00:34:08.206Z,100094.88
2023-05-09T00:36:34.878Z,100118.53
2023-05-09T00:39:01.617Z,100106.31
2023-05-09T00:41:28.306Z,100093.47
2023-05-09T00:43:54.995Z,100117.16
2023-05-09T00:46:21.949Z,100121.00
2023-05-09T00:48:48.732Z,100108.59
2023-05-09T00:51:16.784Z,100081.25
2023-05-09T00:53:43.993Z,100098.16
2023-05-09T00:56:12.034Z,100091.97
2023-05-09T00:58:38.908Z,100100.88
2023-05-09T01:01:05.794Z,100122.06
2023-05-09T01:03:33.007Z,100113.03
2023-05-09T01:06:11.197Z,100095.44
2023-05-09T01:08:47.020Z,100072.50
2023-05-09T01:11:25.917Z,100072.81
2023-05-09T01:14:30.031Z,100126.19
2023-05-09T01:17:02.802Z,100129.47
2023-05-09T01:19:48.196Z,100129.19
2023-05-09T01:22:16.524Z,100108.31
2023-05-09T01:25:01.821Z,100119.03
2023-05-09T01:27:47.016Z,100118.19
2023-05-09T01:30:16.017Z,100076.28
2023-05-09T01:32:44.898Z,100095.53
2023-05-09T01:35:14.705Z,100084.44
2023-05-09T01:37:43.733Z,100077.88
2023-05-09T01:40:16.782Z,100102.75
2023-05-09T01:42:51.802Z,100051.19
2023-05-09T01:45:19.980Z,100043.97
2023-05-09T01:47:49.043Z,100067.00
2023-05-09T01:50:18.414Z,100096.56
2023-05-09T01:52:48.724Z,100066.59
2023-05-09T01:55:16.951Z,100065.75
2023-05-09T01:57:45.309Z,100084.16
2023-05-09T02:00:14.434Z,100088.03
2023-05-09T02:02:42.207Z,100089.91
2023-05-09T02:05:10.931Z,100063.31
2023-05-09T02:07:38.806Z,100088.69
2023-05-09T02:10:09.199Z,100033.44
2023-05-09T02:12:36.042Z,100045.06
2023-05-09T02:15:02.944Z,100082.19
2023-05-09T02:17:30.971Z,100045.81
2023-05-09T02:19:57.947Z,100060.03
2023-05-09T02:22:25.013Z,100033.72
2023-05-09T02:24:52.086Z,100086.91
2023-05-09T02:27:19.744Z,100019.97
2023-05-09T02:29:50.741Z,100079.00
2023-05-09T02:32:24.320Z,100045.94
2023-05-09T02:34:53.053Z,100022.63
2023-05-09T02:37:21.417Z,100038.41
2023-05-09T02:39:48.632Z,100028.81
2023-05-09T02:42:21.664Z,100037.13
2023-05-09T02:44:48.620Z,100017.97
2023-05-09T02:47:15.377Z,100051.03
2023-05-09T02:49:42.042Z,100029.44
2023-05-09T02:52:08.750Z,100023.25
2023-05-09T02:54:35.484Z,100029.63
2023-05-09T02:57:02.143Z,100060.84
2023-05-09T02:59:29.016Z,100036.00
2023-05-09T03:01:55.916Z,100058.50
2023-05-09T03:04:23.108Z,100028.66
2023-05-09T03:06:49.844Z,100046.41
2023-05-09T03:09:16.806Z,100073.06
2023-05-09T03:11:43.763Z,100043.44
2023-05-09T03:14:11.349Z,100046.25
2023-05-09T03:16:38.156Z,100046.91
2023-05-09T03:19:04.901Z,100020.44
2023-05-09T03:21:32.166Z,100047.56
2023-05-09T03:23:59.122Z,100035.16
2023-05-09T03:26:26.656Z,100051.47
2023-05-09T03:28:53.347Z,100030.97
2023-05-09T03:31:20.155Z,100010.19
2023-05-09T03:33:46.916Z,100014.00
2023-05-09T03:36:14.841Z,100006.94
2023-05-09T03:38:41.553Z,100009.41
2023-05-09T03:41:08.219Z,100003.00
2023-05-09T03:43:34.932Z,100016.34
2023-05-09T03:46:01.709Z,100042.94
2023-05-09T03:48:28.398Z,100026.41
2023-05-09T03:50:55.136Z,100069.22
2023-05-09T03:53:21.915Z,100016.63
2023-05-09T03:55:48.714Z,100037.84
2023-05-09T03:58:15.526Z,100022.06
2023-05-09T04:00:42.398Z,100075.69
2023-05-09T04:03:09.644Z,100021.41
2023-05-09T04:05:36.522Z,100009.38
2023-05-09T04:08:04.253Z,100071.75
2023-05-09T04:10:31.983Z,100076.72
2023-05-09T04:12:58.994Z,100040.19
2023-05-09T04:15:25.858Z,100062.72
2023-05-09T04:17:52.599Z,100072.50
2023-05-09T04:20:19.396Z,100073.69
2023-05-09T04:22:47.057Z,100078.50
2023-05-09T04:25:14.788Z,100021.94
2023-05-09T04:27:41.767Z,100038.00
2023-05-09T04:30:09.526Z,100014.91
2023-05-09T04:32:36.987Z,100051.53
2023-05-09T04:35:04.391Z,100056.41
2023-05-09T04:37:32.809Z,100071.94
2023-05-09T04:39:59.537Z,100080.81
2023-05-09T04:42:26.356Z,100049.13
2023-05-09T04:44:53.534Z,100033.25
2023-05-09T04:47:20.328Z,100007.72
2023-05-09T04:49:47.025Z,100042.25
2023-05-09T04:52:13.856Z,100039.72
2023-05-09T04:54:41.197Z,99991.47
2023-05-09T04:57:17.341Z,100007.59
2023-05-09T04:59:45.001Z,99985.16
2023-05-09T05:02:11.739Z,100072.78
2023-05-09T05:04:38.542Z,100051.28
2023-05-09T05:07:05.550Z,100046.13
2023-05-09T05:09:32.309Z,100047.81
2023-05-09T05:12:02.276Z,100017.56
2023-05-09T05:14:29.293Z,100052.22
2023-05-09T05:16:55.968Z,100008.16
2023-05-09T05:19:22.652Z,100043.09
2023-05-09T05:21:49.404Z,100062.28
2023-05-09T05:24:16.199Z,100056.63
2023-05-09T05:26:42.928Z,100026.28
2023-05-09T05:29:09.664Z,100006.28
2023-05-09T05:31:36.569Z,100026.47
2023-05-09T05:34:03.437Z,100030.41
2023-05-09T05:36:30.131Z,100007.41
2023-05-09T05:38:56.804Z,100009.47
2023-05-09T05:41:23.609Z,100012.47
2023-05-09T05:43:51.122Z,100018.94
2023-05-09T05:46:19.673Z,100002.69
2023-05-09T05:48:46.495Z,100023.94
2023-05-09T05:51:16.117Z,100003.91
2023-05-09T05:53:43.242Z,100026.44
2023-05-09T05:56:09.940Z,100050.47
2023-05-09T05:58:36.718Z,100034.75
2023-05-09T06:01:03.469Z,100011.75
2023-05-09T06:03:30.289Z,100046.75
2023-05-09T06:05:57.342Z,100034.44
2023-05-09T06:08:24.021Z,100061.69
2023-05-09T06:10:50.795Z,100041.19
2023-05-09T06:13:17.620Z,100031.78
2023-05-09T06:15:44.366Z,100009.38
2023-05-09T06:18:11.436Z,100008.34
2023-05-09T06:20:38.363Z,100040.53
2023-05-09T06:23:05.343Z,100027.88
2023-05-09T06:25:32.160Z,100021.66
2023-05-09T06:27:58.932Z,100010.50
2023-05-09T06:30:26.944Z,100067.47
2023-05-09T06:32:55.046Z,100050.38
2023-05-09T06:35:22.259Z,100059.25
2023-05-09T06:37:49.341Z,100048.25
2023-05-09T06:40:17.250Z,100012.72
2023-05-09T06:42:44.493Z,100036.25
2023-05-09T06:45:12.155Z,100028.16
2023-05-09T06:47:39.079Z,100035.22
2023-05-09T06:50:06.429Z,100015.69
2023-05-09T06:52:33.102Z,100015.34
2023-05-09T06:54:59.755Z,100032.50
2023-05-09T06:57:26.478Z,100025.84
2023-05-09T06:59:53.543Z,100021.22
2023-05-09T07:02:20.585Z,100042.63
2023-05-09T07:04:47.413Z,100031.59
2023-05-09T07:07:14.199Z,100000.97
2023-05-09T07:09:40.842Z,100014.59
2023-05-09T07:12:07.726Z,100006.59
2023-05-09T07:14:34.409Z,100030.97
2023-05-09T07:17:18.238Z,100031.69
2023-05-09T07:19:47.849Z,100053.41
2023-05-09T07:22:14.571Z,100006.28
2023-05-09T07:24:41.360Z,100003.75
2023-05-09T07:27:08.148Z,100000.03
2023-05-09T07:29:34.841Z,100010.38
2023-05-09T07:32:01.850Z,100043.00
2023-05-09T07:34:28.750Z,100009.44
2023-05-09T07:36:55.759Z,100021.19
2023-05-09T07:39:22.567Z,100043.81
2023-05-09T07:41:49.426Z,100003.22
2023-05-09T07:44:16.427Z,99969.09
2023-05-09T07:46:43.162Z,99985.03
2023-05-09T07:49:10.097Z,99986.59
2023-05-09T07:51:37.011Z,100003.97
2023-05-09T07:54:04.036Z,100028.63
2023-05-09T07:56:30.770Z,100013.56
2023-05-09T07:58:57.502Z,100019.66
2023-05-09T08:01:24.402Z,100006.97
2023-05-09T08:03:51.369Z,99987.72
2023-05-09T08:06:18.173Z,99979.66
2023-05-09T08:08:44.882Z,99960.16
2023-05-09T08:11:11.606Z,100005.28
2023-05-09T08:13:38.437Z,100001.81
2023-05-09T08:16:05.980Z,99980.88
2023-05-09T08:18:32.820Z,100001.44
2023-05-09T08:20:59.928Z,99965.25
2023-05-09T08:23:27.255Z,99944.44
2023-05-09T08:25:54.831Z,100030.31
2023-05-09T08:28:24.905Z,99995.75
2023-05-09T08:30:52.292Z,99990.19
2023-05-09T08:33:19.310Z,99972.03
2023-05-09T08:35:46.165Z,100044.63
2023-05-09T08:38:13.046Z,100044.53
2023-05-09T08:40:41.334Z,100003.00
2023-05-09T08:43:08.849Z,99993.22
2023-05-09T08:45:46.608Z,99984.56
2023-05-09T08:48:18.335Z,100012.22
2023-05-09T08:50:45.508Z,100012.22
2023-05-09T08:53:12.570Z,100025.44
2023-05-09T08:55:39.651Z,99993.97
2023-05-09T08:58:07.390Z,99995.22
2023-05-09T09:00:34.871Z,100006.16
2023-05-09T09:03:06.096Z,99971.91
2023-05-09T09:05:42.026Z,100015.06
2023-05-09T09:08:11.013Z,100030.56
2023-05-09T09:10:42.441Z,100048.13
2023-05-09T09:13:12.601Z,99998.44
2023-05-09T09:15:41.731Z,100014.69
2023-05-09T09:18:12.524Z,100054.28
2023-05-09T09:20:50.555Z,99978.97
2023-05-09T09:23:21.128Z,99990.59
2023-05-09T09:25:48.569Z,100048.97
2023-05-09T09:28:15.693Z,100013.94
2023-05-09T09:30:47.870Z,100025.84
2023-05-09T09:33:22.467Z,100011.91
2023-05-09T09:35:54.322Z,100046.03
2023-05-09T09:38:22.680Z,100055.16
2023-05-09T09:40:52.643Z,100055.47
2023-05-09T09:43:19.934Z,99983.75
2023-05-09T09:45:53.518Z,100052.28
2023-05-09T09:48:27.764Z,99994.22
2023-05-09T09:50:57.034Z,99992.72
2023-05-09T09:53:25.942Z,100028.94
2023-05-09T09:55:53.839Z,100064.88
2023-05-09T09:58:25.242Z,100059.53
2023-05-09T10:01:16.564Z,100015.03
2023-05-09T10:03:48.208Z,99959.22
2023-05-09T10:06:16.588Z,100009.50
2023-05-09T10:08:47.249Z,100015.88
2023-05-09T10:11:14.754Z,100001.81
2023-05-09T10:13:42.611Z,100028.03
2023-05-09T10:16:10.528Z,100042.13
2023-05-09T10:18:39.723Z,100003.47
2023-05-09T10:21:09.492Z,100027.56
2023-05-09T10:23:38.852Z,100067.53
2023-05-09T10:26:08.678Z,100076.25
2023-05-09T10:28:38.936Z,100053.47
2023-05-09T10:31:28.424Z,100078.91
2023-05-09T10:33:58.882Z,100027.84
2023-05-09T10:36:25.642Z,100023.06
2023-05-09T10:38:56.445Z,100087.75
2023-05-09T10:41:24.118Z,100085.16
2023-05-09T10:43:51.673Z,100059.94
2023-05-09T10:46:18.868Z,99996.38
2023-05-09T10:48:48.077Z,100048.25
2023-05-09T10:51:14.839Z,100055.13
2023-05-09T10:53:46.390Z,100069.91
2023-05-09T10:56:33.633Z,100081.22
2023-05-09T11:01:41.997Z,100033.03
2023-05-09T11:04:10.335Z,100003.72
2023-05-09T11:06:47.696Z,100023.06
2023-05-09T11:09:34.106Z,100072.16
2023-05-09T11:12:02.457Z,100018.84
2023-05-09T11:14:41.368Z,100081.97
2023-05-09T11:17:11.109Z,100042.19
2023-05-09T11:19:47.060Z,100081.34
2023-05-09T11:22:16.930Z,100045.63
2023-05-09T11:24:46.871Z,100076.63
2023-05-09T11:27:20.867Z,100081.22
2023-05-09T11:30:03.988Z,100049.03
2023-05-09T11:32:41.620Z,100041.09
2023-05-09T11:35:18.405Z,100041.56
2023-05-09T11:37:47.255Z,100090.56
2023-05-09T11:40:15.984Z,100050.06
2023-05-09T11:42:45.234Z,100065.31
2023-05-09T11:45:14.280Z,100058.13
2023-05-09T11:47:42.126Z,100069.50
2023-05-09T11:50:10.297Z,100039.75
2023-05-09T11:52:38.858Z,100064.00
2023-05-09T11:55:12.661Z,100054.41
2023-05-09T12:00:25.951Z,100082.34
2023-05-09T12:02:54.196Z,100059.56
2023-05-09T12:05:23.754Z,100075.69
2023-05-09T12:07:51.483Z,100073.34
2023-05-09T12:10:27.400Z,100085.53
2023-05-09T12:12:57.847Z,100022.09
2023-05-09T12:15:25.194Z,100051.94
2023-05-09T12:18:08.386Z,100051.53
2023-05-09T12:26:11.601Z,100040.66
2023-05-09T12:28:41.123Z,100043.22
2023-05-09T12:31:16.396Z,100062.31
2023-05-09T12:33:44.164Z,100061.56
2023-05-09T12:36:17.954Z,100094.38
2023-05-09T12:38:57.402Z,100082.03
2023-05-09T12:43:54.780Z,100093.31
2023-05-09T12:46:22.126Z,99990.09
2023-05-09T12:48:49.536Z,100062.69
2023-05-09T12:51:21.216Z,100022.25
2023-05-09T12:53:48.577Z,100064.31
2023-05-09T12:56:17.807Z,100077.78
2023-05-09T12:58:52.889Z,100083.69
2023-05-09T13:01:21.563Z,100080.66
2023-05-09T13:03:52.814Z,100045.22
2023-05-09T13:06:23.463Z,100089.56
2023-05-09T13:09:07.541Z,100073.41
2023-05-09T13:14:18.225Z,100033.06
2023-05-09T13:16:45.745Z,100032.84
2023-05-09T13:19:16.831Z,100075.44
2023-05-09T13:40:31.888Z,100113.63
2023-05-09T13:45:44.488Z,100057.66
2023-05-09T13:53:39.156Z,100065.03
2023-05-09T14:52:48.139Z,100058.59
2023-05-09T14:55:16.287Z,100033.94
2023-05-09T14:57:43.502Z,100051.66
2023-05-09T15:00:20.589Z,100041.97
2023-05-09T15:02:48.469Z,99996.09
2023-05-09T15:05:15.922Z,100094.78
2023-05-09T15:07:42.651Z,100017.94
2023-05-09T15:10:09.973Z,100030.53
2023-05-09T15:12:36.697Z,100032.31
2023-05-09T15:15:17.479Z,100077.59
2023-05-09T15:17:45.307Z,100049.84
2023-05-09T15:20:15.330Z,100013.03
2023-05-09T15:22:42.887Z,100006.06
2023-05-09T15:25:10.555Z,100047.31
2023-05-09T15:27:37.789Z,100086.66
2023-05-09T15:30:06.411Z,100014.50
2023-05-09T15:32:40.637Z,100088.91
2023-05-09T15:35:08.657Z,100070.34
2023-05-09T15:37:37.066Z,100027.19
2023-05-09T15:40:04.567Z,100046.25
2023-05-09T15:42:31.681Z,100079.38
2023-05-09T15:44:58.974Z,100068.53
2023-05-09T15:47:25.868Z,100103.56
2023-05-09T15:49:52.726Z,100021.25
2023-05-09T15:52:19.571Z,100021.63
2023-05-09T15:54:46.413Z,100102.91
2023-05-09T15:57:14.110Z,100095.00
2023-05-09T15:59:42.934Z,100088.03
2023-05-09T16:02:09.898Z,100068.41
2023-05-09T16:04:37.012Z,100062.59
2023-05-09T16:07:03.994Z,100060.44
2023-05-09T16:09:30.858Z,100034.97
2023-05-09T16:11:57.743Z,100028.41
2023-05-09T16:14:24.773Z,100035.97
2023-05-09T16:16:53.633Z,100053.03
2023-05-09T16:19:20.454Z,100053.75
2023-05-09T16:21:58.044Z,100050.97
2023-05-09T16:24:25.032Z,100064.72
2023-05-09T16:26:51.774Z,100071.03
2023-05-09T16:29:18.795Z,100052.34
2023-05-09T16:31:45.722Z,100063.38
2023-05-09T16:34:12.580Z,100052.59
2023-05-09T16:36:39.651Z,100088.06
2023-05-09T16:39:06.477Z,100057.97
2023-05-09T16:41:33.452Z,100066.84
2023-05-09T16:44:00.625Z,100069.84
2023-05-09T16:46:27.481Z,100079.38
2023-05-09T16:48:55.306Z,100079.69
2023-05-09T16:51:22.367Z,100091.88
2023-05-09T16:53:49.228Z,100067.41
2023-05-09T16:58:57.034Z,100084.41
2023-05-09T17:17:36.376Z,100108.31
2023-05-09T17:22:46.211Z,100126.16
2023-05-09T17:27:58.940Z,100084.91
2023-05-09T17:33:11.835Z,100125.69
2023-05-09T17:35:39.071Z,100111.97
2023-05-09T17:38:06.606Z,100111.31
2023-05-09T17:40:34.505Z,100102.66
2023-05-09T17:43:01.676Z,100101.44
2023-05-09T17:45:28.869Z,100061.25
2023-05-09T17:47:57.719Z,100128.13
2023-05-09T17:50:25.186Z,100090.34
2023-05-09T17:52:51.916Z,100084.34
2023-05-09T17:55:19.614Z,100092.47
2023-05-09T17:57:47.303Z,100125.63
2023-05-09T18:00:15.426Z,100079.84
2023-05-09T18:02:43.790Z,100071.19
2023-05-09T18:07:52.650Z,100106.53
2023-05-09T18:10:21.472Z,100119.09
2023-05-09T18:12:49.162Z,100090.38
2023-05-09T18:15:18.828Z,100082.38
2023-05-09T18:17:49.677Z,100079.31
2023-05-09T18:20:17.879Z,100084.91
2023-05-09T18:22:44.917Z,100126.19
2023-05-09T18:25:11.918Z,100086.53
2023-05-09T18:27:38.949Z,100078.00
2023-05-09T18:30:07.075Z,100122.22
2023-05-09T18:32:35.111Z,100119.88
2023-05-09T18:35:02.119Z,100081.16
2023-05-09T18:37:29.136Z,100111.41
2023-05-09T18:39:56.204Z,100082.69
2023-05-09T18:42:23.394Z,100091.31
2023-05-09T18:44:51.056Z,100123.72
2023-05-09T18:47:18.579Z,100100.69
2023-05-09T18:49:45.410Z,100089.25
2023-05-09T18:52:12.967Z,100125.13
2023-05-09T18:54:44.461Z,100093.06
2023-05-09T18:59:52.521Z,100116.97
2023-05-09T19:02:28.244Z,100132.47
2023-05-09T19:04:56.047Z,100095.25
2023-05-09T19:07:25.333Z,100113.88
2023-05-09T19:09:52.889Z,100107.09
2023-05-09T19:12:21.914Z,100096.19
2023-05-09T19:14:50.088Z,100119.75
2023-05-09T19:17:18.034Z,100107.84
2023-05-09T19:19:52.529Z,100073.69
2023-05-09T19:22:21.083Z,100102.38
2023-05-09T19:24:49.901Z,100141.13
2023-05-09T19:27:18.078Z,100094.47
2023-05-09T19:29:46.220Z,100083.00
2023-05-09T19:32:14.590Z,100011.53
2023-05-09T19:34:42.336Z,100056.03
2023-05-09T19:37:10.780Z,100060.38
2023-05-09T19:39:39.402Z,100115.13
2023-05-09T19:42:07.781Z,100129.81
2023-05-09T19:44:36.336Z,100103.16
2023-05-09T19:47:16.485Z,100147.38
2023-05-09T19:49:45.418Z,100055.06
2023-05-09T19:52:16.015Z,100126.94
2023-05-09T20:00:07.659Z,100120.22
2023-05-09T20:02:35.512Z,100081.22
2023-05-09T20:05:11.747Z,100105.16
2023-05-09T20:07:40.389Z,100157.09
2023-05-09T20:10:10.266Z,100115.56
2023-05-09T20:18:06.084Z,100106.53
2023-05-09T20:20:38.899Z,100121.84
2023-05-09T20:28:32.459Z,100149.66
2023-05-09T20:31:02.386Z,100142.13
2023-05-09T20:36:11.775Z,100151.22
2023-05-09T20:38:39.720Z,100143.81
2023-05-09T20:41:15.273Z,100139.34
2023-05-09T20:43:43.849Z,100170.94
2023-05-09T20:46:15.647Z,100158.06
2023-05-09T20:48:43.176Z,100143.50
2023-05-09T20:51:10.300Z,100111.84
2023-05-09T20:53:37.838Z,100111.31
2023-05-09T20:56:05.058Z,100123.31
2023-05-09T20:58:35.665Z,100139.75
2023-05-09T21:25:19.249Z,100123.34
2023-05-09T21:33:09.249Z,100166.31
2023-05-09T21:41:06.712Z,100102.06
2023-05-09T21:46:15.549Z,100106.16
2023-05-09T21:48:43.436Z,100138.09
2023-05-09T21:51:11.609Z,100139.34
2023-05-09T21:53:40.094Z,100133.50
2023-05-09T21:56:09.347Z,100098.59
2023-05-09T21:58:37.189Z,100161.28
2023-05-09T22:01:06.938Z,100124.84
2023-05-09T22:03:38.197Z,100118.59
2023-05-09T22:06:05.651Z,100128.41
2023-05-09T22:08:33.608Z,100121.66
2023-05-09T22:11:00.968Z,100075.16
2023-05-09T22:16:11.822Z,100106.66
2023-05-09T22:18:42.908Z,100118.69
2023-05-09T22:34:33.062Z,100137.28
2023-05-09T22:42:23.593Z,100144.06
2023-05-09T22:44:52.113Z,100121.25
2023-05-09T22:50:08.274Z,100148.53
2023-05-09T22:55:17.847Z,100128.97
2023-05-09T23:03:09.545Z,100143.97
2023-05-09T23:05:37.656Z,100127.63
2023-05-09T23:08:05.953Z,100141.56
2023-05-09T23:10:44.501Z,100105.75
2023-05-09T23:13:11.920Z,100134.09
2023-05-09T23:15:39.139Z,100107.16
2023-05-09T23:18:06.252Z,100096.19
2023-05-09T23:20:33.548Z,100101.34
2023-05-09T23:23:00.760Z,100124.19
2023-05-09T23:25:27.517Z,100116.66
2023-05-09T23:27:55.066Z,100151.72
2023-05-09T23:30:21.951Z,100120.34
2023-05-09T23:32:51.044Z,100115.56
2023-05-09T23:35:18.230Z,100124.72
2023-05-09T23:37:51.855Z,100101.19
2023-05-09T23:40:28.067Z,100078.91
2023-05-09T23:45:35.445Z,100074.22
2023-05-09T23:48:06.928Z,100088.44
2023-05-09T23:50:38.422Z,100060.84
2023-05-09T23:55:50.489Z,100123.84
